Morgan, Pennsylvania
Current Conditions -  °F | °C
As of 12:53 PM on Wednesday 28 Jan 2015 (Local Time) from KAGC Reporting Station
Clear Clear  
Wind Chill:   Ceiling: Unl
Heat Index: 18°   Visibility: 10mi
Dew Point:   Wind: 7mph
Humidity: 62%   Direction: 230°SW
Pressure: 30.3"   Gusts: NA
Location:  40.35°N, 80.14°W
Report Text: KAGC 281753Z 23006KT 10SM CLR M08/M14 A3030 RMK AO2 SLP287 60000 T10781139 11072 21111 58003
Loading
Personal Weather Stations






























Interactive Weather Map New forecast layout! Learn more

10-Day Weather Forecast

Advertisements
Track Severe Weather on mobile